sensor_id;sensor_type;location;lat;lon;timestamp;pressure;altitude;pressure_sealevel;temperature;humidity
69306;BME280;56427;51.580;4.656;2023-02-14T00:00:40;103451.22;;;1.37;100.00
69306;BME280;56427;51.580;4.656;2023-02-14T00:03:06;103444.38;;;1.44;100.00
69306;BME280;56427;51.580;4.656;2023-02-14T00:05:31;103443.53;;;1.26;100.00
69306;BME280;56427;51.580;4.656;2023-02-14T00:07:56;103441.84;;;1.24;100.00
69306;BME280;56427;51.580;4.656;2023-02-14T00:10:22;103437.59;;;1.26;100.00
69306;BME280;56427;51.580;4.656;2023-02-14T00:12:47;103445.25;;;1.18;100.00
69306;BME280;56427;51.580;4.656;2023-02-14T00:15:12;103444.38;;;1.36;100.00
69306;BME280;56427;51.580;4.656;2023-02-14T00:17:52;103444.38;;;1.33;100.00
69306;BME280;56427;51.580;4.656;2023-02-14T00:20:19;103434.19;;;1.21;100.00
69306;BME280;56427;51.580;4.656;2023-02-14T00:22:45;103436.78;;;1.04;100.00
69306;BME280;56427;51.580;4.656;2023-02-14T00:25:10;103422.28;;;0.95;100.00
69306;BME280;56427;51.580;4.656;2023-02-14T00:27:36;103424.84;;;1.04;100.00
69306;BME280;56427;51.580;4.656;2023-02-14T00:30:02;103419.72;;;1.06;100.00
69306;BME280;56427;51.580;4.656;2023-02-14T00:32:28;103423.13;;;1.06;100.00
69306;BME280;56427;51.580;4.656;2023-02-14T00:34:54;103414.59;;;1.12;100.00
69306;BME280;56427;51.580;4.656;2023-02-14T00:37:20;103418.84;;;1.13;100.00
69306;BME280;56427;51.580;4.656;2023-02-14T00:39:45;103419.72;;;1.12;100.00
69306;BME280;56427;51.580;4.656;2023-02-14T00:42:11;103422.28;;;0.94;100.00
69306;BME280;56427;51.580;4.656;2023-02-14T00:44:38;103414.63;;;0.89;100.00
69306;BME280;56427;51.580;4.656;2023-02-14T00:47:04;103425.72;;;0.88;100.00
69306;BME280;56427;51.580;4.656;2023-02-14T00:49:29;103411.22;;;0.95;100.00
69306;BME280;56427;51.580;4.656;2023-02-14T00:51:55;103413.75;;;1.02;100.00
69306;BME280;56427;51.580;4.656;2023-02-14T00:54:20;103409.50;;;0.92;100.00
69306;BME280;56427;51.580;4.656;2023-02-14T00:56:46;103404.38;;;0.98;100.00
69306;BME280;56427;51.580;4.656;2023-02-14T00:59:11;103412.94;;;0.89;100.00
69306;BME280;56427;51.580;4.656;2023-02-14T01:01:37;103409.50;;;0.94;100.00
69306;BME280;56427;51.580;4.656;2023-02-14T01:04:02;103399.25;;;0.92;100.00
69306;BME280;56427;51.580;4.656;2023-02-14T01:06:28;103402.69;;;0.76;100.00
69306;BME280;56427;51.580;4.656;2023-02-14T01:08:54;103406.13;;;0.58;100.00
69306;BME280;56427;51.580;4.656;2023-02-14T01:11:21;103406.94;;;0.43;100.00
69306;BME280;56427;51.580;4.656;2023-02-14T01:13:48;103403.53;;;0.25;100.00
69306;BME280;56427;51.580;4.656;2023-02-14T01:16:19;103412.03;;;0.12;100.00
69306;BME280;56427;51.580;4.656;2023-02-14T01:18:45;103406.13;;;0.31;100.00
69306;BME280;56427;51.580;4.656;2023-02-14T01:23:41;103417.13;;;0.07;100.00
69306;BME280;56427;51.580;4.656;2023-02-14T01:26:07;103410.31;;;0.09;100.00
69306;BME280;56427;51.580;4.656;2023-02-14T01:28:34;103411.16;;;0.10;100.00
69306;BME280;56427;51.580;4.656;2023-02-14T01:33:36;103416.28;;;0.08;100.00
69306;BME280;56427;51.580;4.656;2023-02-14T01:36:02;103404.38;;;0.12;100.00
69306;BME280;56427;51.580;4.656;2023-02-14T01:38:28;103400.13;;;0.23;100.00
69306;BME280;56427;51.580;4.656;2023-02-14T01:40:54;103405.25;;;0.23;100.00
69306;BME280;56427;51.580;4.656;2023-02-14T01:43:19;103412.88;;;0.12;100.00
69306;BME280;56427;51.580;4.656;2023-02-14T01:45:44;103407.72;;;-0.11;100.00
69306;BME280;56427;51.580;4.656;2023-02-14T01:48:10;103415.31;;;-0.31;100.00
69306;BME280;56427;51.580;4.656;2023-02-14T01:50:38;103411.06;;;-0.27;100.00
69306;BME280;56427;51.580;4.656;2023-02-14T01:53:13;103404.25;;;-0.34;100.00
69306;BME280;56427;51.580;4.656;2023-02-14T01:55:46;103408.38;;;-0.57;100.00
69306;BME280;56427;51.580;4.656;2023-02-14T01:58:20;103399.91;;;-0.46;100.00
69306;BME280;56427;51.580;4.656;2023-02-14T02:00:46;103398.25;;;-0.44;100.00
69306;BME280;56427;51.580;4.656;2023-02-14T02:03:23;103394.91;;;-0.29;100.00
69306;BME280;56427;51.580;4.656;2023-02-14T02:05:52;103404.31;;;-0.14;100.00
69306;BME280;56427;51.580;4.656;2023-02-14T02:08:20;103407.69;;;-0.12;100.00
69306;BME280;56427;51.580;4.656;2023-02-14T02:10:45;103405.03;;;-0.45;100.00
69306;BME280;56427;51.580;4.656;2023-02-14T02:13:16;103402.47;;;-0.43;100.00
69306;BME280;56427;51.580;4.656;2023-02-14T02:18:58;103405.06;;;-0.39;100.00
69306;BME280;56427;51.580;4.656;2023-02-14T02:30:24;103391.47;;;-0.36;100.00
69306;BME280;56427;51.580;4.656;2023-02-14T02:33:36;103389.78;;;-0.31;100.00
69306;BME280;56427;51.580;4.656;2023-02-14T02:39:15;103394.91;;;-0.29;100.00
69306;BME280;56427;51.580;4.656;2023-02-14T02:47:31;103381.94;;;-0.74;100.00
69306;BME280;56427;51.580;4.656;2023-02-14T02:50:25;103383.66;;;-0.71;100.00
69306;BME280;56427;51.580;4.656;2023-02-14T02:56:14;103377.84;;;-0.43;100.00
69306;BME280;56427;51.580;4.656;2023-02-14T02:59:07;103383.81;;;-0.34;100.00
69306;BME280;56427;51.580;4.656;2023-02-14T03:01:44;103383.72;;;-0.54;100.00
69306;BME280;56427;51.580;4.656;2023-02-14T03:04:12;103378.63;;;-0.51;100.00
69306;BME280;56427;51.580;4.656;2023-02-14T03:06:58;103366.66;;;-0.65;100.00
69306;BME280;56427;51.580;4.656;2023-02-14T03:12:01;103381.91;;;-0.79;100.00
69306;BME280;56427;51.580;4.656;2023-02-14T03:14:38;103373.38;;;-0.87;100.00
69306;BME280;56427;51.580;4.656;2023-02-14T03:17:21;103374.16;;;-0.99;100.00
69306;BME280;56427;51.580;4.656;2023-02-14T03:22:51;103379.28;;;-0.91;100.00
69306;BME280;56427;51.580;4.656;2023-02-14T03:25:35;103370.78;;;-0.93;100.00
69306;BME280;56427;51.580;4.656;2023-02-14T03:30:45;103373.25;;;-1.02;100.00
69306;BME280;56427;51.580;4.656;2023-02-14T03:33:19;103372.59;;;-0.72;100.00
69306;BME280;56427;51.580;4.656;2023-02-14T03:36:02;103366.66;;;-0.74;100.00
69306;BME280;56427;51.580;4.656;2023-02-14T03:38:52;103369.91;;;-0.97;100.00
69306;BME280;56427;51.580;4.656;2023-02-14T03:41:23;103377.44;;;-1.15;100.00
69306;BME280;56427;51.580;4.656;2023-02-14T03:43:59;103371.59;;;-1.00;100.00
69306;BME280;56427;51.580;4.656;2023-02-14T03:46:30;103367.28;;;-1.09;100.00
69306;BME280;56427;51.580;4.656;2023-02-14T03:49:01;103369.00;;;-1.06;100.00
69306;BME280;56427;51.580;4.656;2023-02-14T03:51:28;103365.56;;;-1.13;100.00
69306;BME280;56427;51.580;4.656;2023-02-14T03:53:59;103374.00;;;-1.19;100.00
69306;BME280;56427;51.580;4.656;2023-02-14T03:56:37;103368.91;;;-1.23;100.00
69306;BME280;56427;51.580;4.656;2023-02-14T03:59:21;103370.53;;;-1.28;100.00
69306;BME280;56427;51.580;4.656;2023-02-14T04:02:11;103370.56;;;-1.24;100.00
69306;BME280;56427;51.580;4.656;2023-02-14T04:04:43;103371.41;;;-1.26;100.00
69306;BME280;56427;51.580;4.656;2023-02-14T04:07:15;103368.09;;;-1.16;100.00
69306;BME280;56427;51.580;4.656;2023-02-14T04:09:42;103370.56;;;-1.25;100.00
69306;BME280;56427;51.580;4.656;2023-02-14T04:12:08;103366.31;;;-1.30;100.00
69306;BME280;56427;51.580;4.656;2023-02-14T04:14:33;103373.97;;;-1.25;100.00
69306;BME280;56427;51.580;4.656;2023-02-14T04:16:59;103366.50;;;-1.02;100.00
69306;BME280;56427;51.580;4.656;2023-02-14T04:19:44;103371.59;;;-1.00;100.00
69306;BME280;56427;51.580;4.656;2023-02-14T04:22:09;103380.19;;;-0.83;100.00
69306;BME280;56427;51.580;4.656;2023-02-14T04:24:34;103372.59;;;-0.73;100.00
69306;BME280;56427;51.580;4.656;2023-02-14T04:27:00;103375.94;;;-0.87;100.00
69306;BME280;56427;51.580;4.656;2023-02-14T04:29:41;103378.47;;;-0.87;100.00
69306;BME280;56427;51.580;4.656;2023-02-14T04:32:10;103362.19;;;-1.07;100.00
69306;BME280;56427;51.580;4.656;2023-02-14T04:34:36;103375.78;;;-1.12;100.00
69306;BME280;56427;51.580;4.656;2023-02-14T04:37:02;103374.03;;;-1.17;100.00
69306;BME280;56427;51.580;4.656;2023-02-14T04:39:27;103370.59;;;-1.22;100.00
69306;BME280;56427;51.580;4.656;2023-02-14T04:41:53;103368.91;;;-1.20;100.00
69306;BME280;56427;51.580;4.656;2023-02-14T04:44:18;103373.28;;;-1.01;100.00
69306;BME280;56427;51.580;4.656;2023-02-14T04:46:44;103370.75;;;-0.98;100.00
69306;BME280;56427;51.580;4.656;2023-02-14T04:49:09;103370.88;;;-0.76;100.00
69306;BME280;56427;51.580;4.656;2023-02-14T04:51:34;103369.06;;;-0.93;100.00
69306;BME280;56427;51.580;4.656;2023-02-14T04:53:59;103371.47;;;-1.17;100.00
69306;BME280;56427;51.580;4.656;2023-02-14T04:56:25;103367.16;;;-1.29;100.00
69306;BME280;56427;51.580;4.656;2023-02-14T04:58:52;103362.00;;;-1.35;100.00
69306;BME280;56427;51.580;4.656;2023-02-14T05:01:17;103370.53;;;-1.28;100.00
69306;BME280;56427;51.580;4.656;2023-02-14T05:03:42;103370.72;;;-1.07;100.00
69306;BME280;56427;51.580;4.656;2023-02-14T05:06:08;103364.03;;;-0.86;100.00
69306;BME280;56427;51.580;4.656;2023-02-14T05:08:33;103363.00;;;-1.15;100.00
69306;BME280;56427;51.580;4.656;2023-02-14T05:10:58;103355.22;;;-1.30;100.00
69306;BME280;56427;51.580;4.656;2023-02-14T05:13:24;103352.88;;;-1.01;100.00
69306;BME280;56427;51.580;4.656;2023-02-14T05:15:49;103359.75;;;-0.87;100.00
69306;BME280;56427;51.580;4.656;2023-02-14T05:18:14;103363.94;;;-1.00;100.00
69306;BME280;56427;51.580;4.656;2023-02-14T05:20:40;103357.78;;;-1.28;100.00
69306;BME280;56427;51.580;4.656;2023-02-14T05:23:06;103361.31;;;-1.11;100.00
69306;BME280;56427;51.580;4.656;2023-02-14T05:25:40;103356.28;;;-1.05;100.00
69306;BME280;56427;51.580;4.656;2023-02-14T05:28:05;103356.34;;;-0.91;100.00
69306;BME280;56427;51.580;4.656;2023-02-14T05:30:31;103357.19;;;-0.92;100.00
69306;BME280;56427;51.580;4.656;2023-02-14T05:32:56;103356.25;;;-1.08;100.00
69306;BME280;56427;51.580;4.656;2023-02-14T05:35:22;103359.56;;;-1.23;100.00
69306;BME280;56427;51.580;4.656;2023-02-14T05:37:47;103359.50;;;-1.29;100.00
69306;BME280;56427;51.580;4.656;2023-02-14T05:40:12;103367.19;;;-1.23;100.00
69306;BME280;56427;51.580;4.656;2023-02-14T05:42:39;103364.75;;;-1.04;100.00
69306;BME280;56427;51.580;4.656;2023-02-14T05:45:05;103368.28;;;-0.87;100.00
69306;BME280;56427;51.580;4.656;2023-02-14T05:47:30;103364.06;;;-0.79;100.00
69306;BME280;56427;51.580;4.656;2023-02-14T05:49:56;103362.44;;;-0.61;100.00
69306;BME280;56427;51.580;4.656;2023-02-14T05:52:21;103366.66;;;-0.65;100.00
69306;BME280;56427;51.580;4.656;2023-02-14T05:54:46;103362.38;;;-0.73;100.00
69306;BME280;56427;51.580;4.656;2023-02-14T05:57:12;103363.31;;;-0.59;100.00
69306;BME280;56427;51.580;4.656;2023-02-14T05:59:37;103361.53;;;-0.77;100.00
69306;BME280;56427;51.580;4.656;2023-02-14T06:02:02;103358.03;;;-0.93;100.00
69306;BME280;56427;51.580;4.656;2023-02-14T06:04:27;103359.72;;;-0.97;100.00
69306;BME280;56427;51.580;4.656;2023-02-14T06:06:53;103359.75;;;-0.90;100.00
69306;BME280;56427;51.580;4.656;2023-02-14T06:09:18;103356.34;;;-0.91;100.00
69306;BME280;56427;51.580;4.656;2023-02-14T06:11:44;103356.31;;;-0.96;100.00
69306;BME280;56427;51.580;4.656;2023-02-14T06:14:09;103359.81;;;-0.77;100.00
69306;BME280;56427;51.580;4.656;2023-02-14T06:16:34;103363.28;;;-0.67;100.00
69306;BME280;56427;51.580;4.656;2023-02-14T06:19:00;103358.97;;;-0.79;100.00
69306;BME280;56427;51.580;4.656;2023-02-14T06:21:25;103357.31;;;-0.69;100.00
69306;BME280;56427;51.580;4.656;2023-02-14T06:23:51;103363.31;;;-0.58;100.00
69306;BME280;56427;51.580;4.656;2023-02-14T06:26:17;103369.34;;;-0.35;100.00
69306;BME280;56427;51.580;4.656;2023-02-14T06:28:42;103367.66;;;-0.33;100.00
69306;BME280;56427;51.580;4.656;2023-02-14T06:31:14;103364.28;;;-0.28;100.00
69306;BME280;56427;51.580;4.656;2023-02-14T06:33:39;103371.13;;;-0.16;100.00
69306;BME280;56427;51.580;4.656;2023-02-14T06:36:05;103359.16;;;-0.29;100.00
69306;BME280;56427;51.580;4.656;2023-02-14T06:38:30;103366.81;;;-0.29;100.00
69306;BME280;56427;51.580;4.656;2023-02-14T06:41:02;103358.31;;;-0.24;100.00
69306;BME280;56427;51.580;4.656;2023-02-14T06:43:29;103360.91;;;-0.07;100.00
69306;BME280;56427;51.580;4.656;2023-02-14T06:45:54;103360.94;;;-0.10;100.00
69306;BME280;56427;51.580;4.656;2023-02-14T06:48:19;103365.22;;;0.08;100.00
69306;BME280;56427;51.580;4.656;2023-02-14T06:50:45;103369.44;;;-0.08;100.00
69306;BME280;56427;51.580;4.656;2023-02-14T06:53:11;103370.19;;;-0.35;100.00
69306;BME280;56427;51.580;4.656;2023-02-14T06:55:36;103363.38;;;-0.39;100.00
69306;BME280;56427;51.580;4.656;2023-02-14T06:58:02;103370.22;;;-0.29;100.00
69306;BME280;56427;51.580;4.656;2023-02-14T07:00:27;103368.53;;;-0.21;100.00
69306;BME280;56427;51.580;4.656;2023-02-14T07:02:53;103360.94;;;-0.10;100.00
69306;BME280;56427;51.580;4.656;2023-02-14T07:05:18;103371.13;;;-0.16;100.00
69306;BME280;56427;51.580;4.656;2023-02-14T07:07:44;103369.44;;;-0.05;100.00
69306;BME280;56427;51.580;4.656;2023-02-14T07:10:10;103372.00;;;0.11;100.00
69306;BME280;56427;51.580;4.656;2023-02-14T07:12:35;103372.88;;;0.14;100.00
69306;BME280;56427;51.580;4.656;2023-02-14T07:15:04;103381.41;;;0.36;100.00
69306;BME280;56427;51.580;4.656;2023-02-14T07:17:30;103372.03;;;0.25;100.00
69306;BME280;56427;51.580;4.656;2023-02-14T07:19:55;103372.88;;;0.36;100.00
69306;BME280;56427;51.580;4.656;2023-02-14T07:22:21;103380.53;;;0.38;100.00
69306;BME280;56427;51.580;4.656;2023-02-14T07:24:47;103375.44;;;0.25;100.00
69306;BME280;56427;51.580;4.656;2023-02-14T07:27:12;103384.81;;;0.25;100.00
69306;BME280;56427;51.580;4.656;2023-02-14T07:29:37;103379.72;;;0.60;100.00
69306;BME280;56427;51.580;4.656;2023-02-14T07:32:03;103374.59;;;0.72;100.00
69306;BME280;56427;51.580;4.656;2023-02-14T07:34:28;103380.56;;;0.42;100.00
69306;BME280;56427;51.580;4.656;2023-02-14T07:36:54;103383.09;;;0.25;100.00
69306;BME280;56427;51.580;4.656;2023-02-14T07:39:19;103378.88;;;0.38;100.00
69306;BME280;56427;51.580;4.656;2023-02-14T07:41:45;103371.19;;;0.50;100.00
69306;BME280;56427;51.580;4.656;2023-02-14T07:44:10;103365.19;;;0.96;100.00
69306;BME280;56427;51.580;4.656;2023-02-14T07:46:35;103372.72;;;1.33;100.00
69306;BME280;56427;51.580;4.656;2023-02-14T07:49:01;103371.97;;;1.17;100.00
69306;BME280;56427;51.580;4.656;2023-02-14T07:51:26;103366.69;;;1.53;100.00
69306;BME280;56427;51.580;4.656;2023-02-14T07:53:52;103363.13;;;1.89;100.00
69306;BME280;56427;51.580;4.656;2023-02-14T07:56:17;103368.25;;;1.84;100.00
69306;BME280;56427;51.580;4.656;2023-02-14T07:58:43;103372.19;;;2.33;100.00
69306;BME280;56427;51.580;4.656;2023-02-14T08:01:08;103369.50;;;2.52;100.00
69306;BME280;56427;51.580;4.656;2023-02-14T08:03:33;103376.00;;;2.87;100.00
69306;BME280;56427;51.580;4.656;2023-02-14T08:05:58;103383.97;;;3.41;100.00
69306;BME280;56427;51.580;4.656;2023-02-14T08:08:29;103373.63;;;4.11;100.00
69306;BME280;56427;51.580;4.656;2023-02-14T08:10:55;103381.09;;;3.64;100.00
69306;BME280;56427;51.580;4.656;2023-02-14T08:13:20;103374.97;;;3.73;100.00
69306;BME280;56427;51.580;4.656;2023-02-14T08:15:45;103372.44;;;3.72;100.00
69306;BME280;56427;51.580;4.656;2023-02-14T08:18:31;103371.31;;;3.91;100.00
69306;BME280;56427;51.580;4.656;2023-02-14T08:20:58;103371.63;;;4.29;100.00
69306;BME280;56427;51.580;4.656;2023-02-14T08:23:23;103364.09;;;4.69;100.00
69306;BME280;56427;51.580;4.656;2023-02-14T08:25:50;103360.50;;;5.23;100.00
69306;BME280;56427;51.580;4.656;2023-02-14T08:28:15;103363.16;;;6.00;100.00
69306;BME280;56427;51.580;4.656;2023-02-14T08:30:42;103362.00;;;5.74;100.00
69306;BME280;56427;51.580;4.656;2023-02-14T08:33:08;103371.09;;;5.50;100.00
69306;BME280;56427;51.580;4.656;2023-02-14T08:35:34;103362.75;;;5.39;100.00
69306;BME280;56427;51.580;4.656;2023-02-14T08:38:00;103353.72;;;5.60;100.00
69306;BME280;56427;51.580;4.656;2023-02-14T08:40:25;103358.72;;;5.67;100.00
69306;BME280;56427;51.580;4.656;2023-02-14T08:42:51;103362.00;;;6.13;100.00
69306;BME280;56427;51.580;4.656;2023-02-14T08:45:16;103357.31;;;5.92;100.00
69306;BME280;56427;51.580;4.656;2023-02-14T08:47:41;103352.97;;;5.94;100.00
69306;BME280;56427;51.580;4.656;2023-02-14T08:50:11;103358.53;;;6.14;100.00
69306;BME280;56427;51.580;4.656;2023-02-14T08:52:41;103355.50;;;6.67;100.00
69306;BME280;56427;51.580;4.656;2023-02-14T08:55:08;103353.41;;;6.13;100.00
69306;BME280;56427;51.580;4.656;2023-02-14T08:57:33;103354.28;;;6.80;100.00
69306;BME280;56427;51.580;4.656;2023-02-14T08:59:58;103349.06;;;6.49;100.00
69306;BME280;56427;51.580;4.656;2023-02-14T09:02:24;103357.19;;;6.68;100.00
69306;BME280;56427;51.580;4.656;2023-02-14T09:04:49;103344.16;;;5.65;100.00
69306;BME280;56427;51.580;4.656;2023-02-14T09:07:14;103350.44;;;6.28;100.00
69306;BME280;56427;51.580;4.656;2023-02-14T09:09:40;103349.50;;;6.67;100.00
69306;BME280;56427;51.580;4.656;2023-02-14T09:12:07;103344.53;;;6.24;100.00
69306;BME280;56427;51.580;4.656;2023-02-14T09:14:37;103346.72;;;7.06;100.00
69306;BME280;56427;51.580;4.656;2023-02-14T09:17:03;103343.91;;;6.49;100.00
69306;BME280;56427;51.580;4.656;2023-02-14T09:19:34;103350.19;;;7.05;100.00
69306;BME280;56427;51.580;4.656;2023-02-14T09:22:00;103348.91;;;7.19;100.00
69306;BME280;56427;51.580;4.656;2023-02-14T09:24:28;103346.75;;;7.92;100.00
69306;BME280;56427;51.580;4.656;2023-02-14T09:26:54;103335.59;;;8.17;100.00
69306;BME280;56427;51.580;4.656;2023-02-14T09:29:21;103341.97;;;7.50;100.00
69306;BME280;56427;51.580;4.656;2023-02-14T09:31:47;103342.94;;;7.47;100.00
69306;BME280;56427;51.580;4.656;2023-02-14T09:34:12;103343.03;;;7.72;100.00
69306;BME280;56427;51.580;4.656;2023-02-14T09:36:38;103333.06;;;8.15;100.00
69306;BME280;56427;51.580;4.656;2023-02-14T09:39:03;103332.06;;;8.46;100.00
69306;BME280;56427;51.580;4.656;2023-02-14T09:44:18;103329.16;;;9.72;100.00
69306;BME280;56427;51.580;4.656;2023-02-14T09:46:52;103328.13;;;8.34;100.00
69306;BME280;56427;51.580;4.656;2023-02-14T09:49:35;103322.13;;;8.32;100.00
69306;BME280;56427;51.580;4.656;2023-02-14T09:52:03;103334.47;;;9.25;100.00
69306;BME280;56427;51.580;4.656;2023-02-14T09:54:32;103326.88;;;8.96;100.00
69306;BME280;56427;51.580;4.656;2023-02-14T09:59:48;103324.94;;;9.47;100.00
69306;BME280;56427;51.580;4.656;2023-02-14T10:05:25;103324.50;;;10.45;100.00
69306;BME280;56427;51.580;4.656;2023-02-14T10:08:14;103322.88;;;10.00;100.00
69306;BME280;56427;51.580;4.656;2023-02-14T10:10:45;103319.00;;;10.10;100.00
69306;BME280;56427;51.580;4.656;2023-02-14T10:13:26;103323.47;;;11.27;100.00
69306;BME280;56427;51.580;4.656;2023-02-14T10:16:08;103315.00;;;10.83;100.00
69306;BME280;56427;51.580;4.656;2023-02-14T10:18:45;103313.03;;;10.70;100.00
69306;BME280;56427;51.580;4.656;2023-02-14T10:21:27;103307.22;;;10.44;100.00
69306;BME280;56427;51.580;4.656;2023-02-14T10:27:10;103309.47;;;10.10;100.00
69306;BME280;56427;51.580;4.656;2023-02-14T10:29:37;103315.00;;;9.81;100.00
69306;BME280;56427;51.580;4.656;2023-02-14T10:32:03;103307.34;;;9.77;100.00
69306;BME280;56427;51.580;4.656;2023-02-14T10:37:56;103309.97;;;9.98;100.00
69306;BME280;56427;51.580;4.656;2023-02-14T10:40:20;103318.31;;;9.84;100.00
69306;BME280;56427;51.580;4.656;2023-02-14T10:43:04;103308.00;;;10.46;100.00
69306;BME280;56427;51.580;4.656;2023-02-14T10:45:48;103316.00;;;10.19;100.00
69306;BME280;56427;51.580;4.656;2023-02-14T10:51:29;103309.72;;;11.05;100.00
69306;BME280;56427;51.580;4.656;2023-02-14T10:56:34;103317.03;;;10.37;100.00
69306;BME280;56427;51.580;4.656;2023-02-14T10:59:14;103302.66;;;10.49;100.00
69306;BME280;56427;51.580;4.656;2023-02-14T11:01:42;103301.88;;;10.26;100.00
69306;BME280;56427;51.580;4.656;2023-02-14T11:04:09;103300.31;;;10.63;100.00
69306;BME280;56427;51.580;4.656;2023-02-14T11:06:37;103295.78;;;10.88;100.00
69306;BME280;56427;51.580;4.656;2023-02-14T11:09:02;103295.13;;;11.39;100.00
69306;BME280;56427;51.580;4.656;2023-02-14T11:11:29;103291.81;;;11.72;100.00
69306;BME280;56427;51.580;4.656;2023-02-14T11:13:55;103279.66;;;11.73;100.00
69306;BME280;56427;51.580;4.656;2023-02-14T11:16:33;103291.72;;;11.93;100.00
69306;BME280;56427;51.580;4.656;2023-02-14T11:19:20;103277.53;;;12.33;100.00
69306;BME280;56427;51.580;4.656;2023-02-14T11:21:47;103273.69;;;11.53;100.00
69306;BME280;56427;51.580;4.656;2023-02-14T11:27:15;103260.28;;;11.61;100.00
69306;BME280;56427;51.580;4.656;2023-02-14T11:29:42;103267.66;;;12.40;100.00
69306;BME280;56427;51.580;4.656;2023-02-14T11:35:05;103250.72;;;12.81;100.00
69306;BME280;56427;51.580;4.656;2023-02-14T11:37:36;103252.97;;;12.55;100.00
69306;BME280;56427;51.580;4.656;2023-02-14T11:40:04;103250.47;;;13.33;100.00
69306;BME280;56427;51.580;4.656;2023-02-14T11:45:01;103245.25;;;13.33;99.72
69306;BME280;56427;51.580;4.656;2023-02-14T11:47:31;103240.63;;;12.91;100.00
69306;BME280;56427;51.580;4.656;2023-02-14T11:50:06;103236.88;;;12.31;100.00
69306;BME280;56427;51.580;4.656;2023-02-14T11:52:44;103239.06;;;12.88;100.00
69306;BME280;56427;51.580;4.656;2023-02-14T11:55:22;103235.50;;;12.57;100.00
69306;BME280;56427;51.580;4.656;2023-02-14T11:57:48;103229.59;;;13.17;100.00
69306;BME280;56427;51.580;4.656;2023-02-14T12:00:17;103224.91;;;13.08;99.36
69306;BME280;56427;51.580;4.656;2023-02-14T12:02:48;103226.09;;;12.86;99.60
69306;BME280;56427;51.580;4.656;2023-02-14T12:05:22;103222.88;;;12.49;100.00
69306;BME280;56427;51.580;4.656;2023-02-14T12:07:51;103213.75;;;13.06;100.00
69306;BME280;56427;51.580;4.656;2023-02-14T12:10:20;103211.41;;;13.32;100.00
69306;BME280;56427;51.580;4.656;2023-02-14T12:12:54;103204.94;;;12.27;100.00
69306;BME280;56427;51.580;4.656;2023-02-14T12:17:52;103189.59;;;12.05;100.00
69306;BME280;56427;51.580;4.656;2023-02-14T12:20:30;103185.69;;;12.30;100.00
69306;BME280;56427;51.580;4.656;2023-02-14T12:23:41;103185.31;;;13.01;100.00
69306;BME280;56427;51.580;4.656;2023-02-14T12:26:03;103183.97;;;12.94;100.00
69306;BME280;56427;51.580;4.656;2023-02-14T12:28:47;103179.34;;;12.36;100.00
69306;BME280;56427;51.580;4.656;2023-02-14T12:31:14;103180.38;;;12.49;100.00
69306;BME280;56427;51.580;4.656;2023-02-14T12:33:39;103175.66;;;12.56;100.00
69306;BME280;56427;51.580;4.656;2023-02-14T12:41:50;103162.78;;;12.84;100.00
69306;BME280;56427;51.580;4.656;2023-02-14T12:47:15;103163.81;;;12.98;100.00
69306;BME280;56427;51.580;4.656;2023-02-14T12:55:08;103162.63;;;13.34;100.00
69306;BME280;56427;51.580;4.656;2023-02-14T12:57:50;103152.66;;;13.10;100.00
69306;BME280;56427;51.580;4.656;2023-02-14T13:06:26;103145.00;;;13.68;100.00
69306;BME280;56427;51.580;4.656;2023-02-14T13:16:56;103132.53;;;13.28;100.00
69306;BME280;56427;51.580;4.656;2023-02-14T13:19:56;103137.75;;;13.12;100.00
69306;BME280;56427;51.580;4.656;2023-02-14T13:22:25;103133.84;;;13.35;99.25
69306;BME280;56427;51.580;4.656;2023-02-14T13:24:56;103120.38;;;13.43;100.00
69306;BME280;56427;51.580;4.656;2023-02-14T13:27:27;103111.66;;;13.73;99.87
69306;BME280;56427;51.580;4.656;2023-02-14T13:29:59;103120.22;;;13.60;99.16
69306;BME280;56427;51.580;4.656;2023-02-14T13:32:30;103125.31;;;13.48;98.44
69306;BME280;56427;51.580;4.656;2023-02-14T13:34:57;103118.06;;;13.53;98.52
69306;BME280;56427;51.580;4.656;2023-02-14T13:37:24;103117.25;;;13.81;94.88
69306;BME280;56427;51.580;4.656;2023-02-14T13:39:57;103103.94;;;13.57;97.95
69306;BME280;56427;51.580;4.656;2023-02-14T13:48:09;103099.41;;;13.44;97.78
69306;BME280;56427;51.580;4.656;2023-02-14T13:53:29;103097.28;;;13.51;97.16
69306;BME280;56427;51.580;4.656;2023-02-14T13:55:55;103099.06;;;13.79;96.30
69306;BME280;56427;51.580;4.656;2023-02-14T13:58:21;103095.91;;;13.74;99.08
69306;BME280;56427;51.580;4.656;2023-02-14T14:00:49;103095.50;;;13.52;97.21
69306;BME280;56427;51.580;4.656;2023-02-14T14:06:06;103085.75;;;13.25;98.81
69306;BME280;56427;51.580;4.656;2023-02-14T14:08:57;103088.44;;;13.23;98.93
69306;BME280;56427;51.580;4.656;2023-02-14T14:18:54;103084.75;;;13.28;100.00
69306;BME280;56427;51.580;4.656;2023-02-14T14:21:30;103089.25;;;13.40;96.66
69306;BME280;56427;51.580;4.656;2023-02-14T14:26:42;103082.00;;;13.45;96.30
69306;BME280;56427;51.580;4.656;2023-02-14T14:29:29;103078.00;;;13.97;93.19
69306;BME280;56427;51.580;4.656;2023-02-14T14:31:55;103085.19;;;13.93;92.26
69306;BME280;56427;51.580;4.656;2023-02-14T14:34:24;103081.63;;;13.94;93.71
69306;BME280;56427;51.580;4.656;2023-02-14T14:37:00;103080.78;;;13.79;96.00
69306;BME280;56427;51.580;4.656;2023-02-14T14:39:28;103084.28;;;13.80;98.10
69306;BME280;56427;51.580;4.656;2023-02-14T14:41:56;103080.44;;;13.26;97.74
69306;BME280;56427;51.580;4.656;2023-02-14T14:44:29;103069.09;;;12.83;99.85
69306;BME280;56427;51.580;4.656;2023-02-14T14:46:58;103067.94;;;13.17;99.92
69306;BME280;56427;51.580;4.656;2023-02-14T14:49:24;103066.41;;;13.29;99.21
69306;BME280;56427;51.580;4.656;2023-02-14T14:51:50;103071.03;;;13.69;94.00
69306;BME280;56427;51.580;4.656;2023-02-14T14:54:17;103064.41;;;13.18;94.87